Time;durP1;ratioP1;P1;durP2;ratioP2;P2;SDS_P1;SDS_P2;PMS_P1;PMS_P2;Temp;Humidity;BMP_temperature;BMP_pressure;BME280_temperature;BME280_humidity;BME280_pressure;Samples;Min_cycle;Max_cycle;Signal;HPM_P1;HPM_P2
2022/11/22 00:00:28;;;;;;;32.17;17.73;;;4.40;99.90;;;;;;5094889;28;20046;-80
2022/11/22 00:02:54;;;;;;;30.52;17.60;;;3.20;99.90;;;;;;5113003;28;20466;-81
2022/11/22 00:05:20;;;;;;;29.73;16.73;;;3.20;99.90;;;;;;5112818;28;20039;-80
2022/11/22 00:07:45;;;;;;;30.60;17.38;;;3.20;99.90;;;;;;5112894;28;20043;-80
2022/11/22 00:10:13;;;;;;;29.63;17.90;;;3.20;99.90;;;;;;5112936;28;20040;-80
2022/11/22 00:12:39;;;;;;;28.83;17.00;;;3.10;99.90;;;;;;5132150;28;20065;-80
2022/11/22 00:15:06;;;;;;;30.85;17.38;;;3.10;99.90;;;;;;5115772;28;20035;-80
2022/11/22 00:17:32;;;;;;;31.42;17.23;;;3.20;99.90;;;;;;5114614;28;20118;-81
2022/11/22 00:19:58;;;;;;;28.48;17.13;;;3.20;99.90;;;;;;5133670;28;20043;-80
2022/11/22 00:22:24;;;;;;;30.27;17.15;;;3.20;99.90;;;;;;5133572;28;20043;-80
2022/11/22 00:24:51;;;;;;;30.50;17.42;;;3.20;99.90;;;;;;5093908;28;20103;-78
2022/11/22 00:27:17;;;;;;;29.58;17.38;;;3.20;99.90;;;;;;5133162;28;20601;-78
2022/11/22 00:29:43;;;;;;;30.23;17.10;;;3.20;99.90;;;;;;5114460;28;20079;-78
2022/11/22 00:32:09;;;;;;;30.17;17.77;;;3.50;99.90;;;;;;5114812;28;20078;-79
2022/11/22 00:34:34;;;;;;;30.92;17.15;;;3.20;99.90;;;;;;5133479;28;20058;-78
2022/11/22 00:37:00;;;;;;;28.50;17.42;;;3.30;99.90;;;;;;5115932;28;20398;-78
2022/11/22 00:39:26;;;;;;;29.80;17.63;;;3.30;99.90;;;;;;5133235;28;20035;-79
2022/11/22 00:41:51;;;;;;;33.63;18.83;;;3.30;99.90;;;;;;5108474;28;20039;-78
2022/11/22 00:44:17;;;;;;;30.02;16.80;;;3.20;99.90;;;;;;5112644;28;20161;-78
2022/11/22 00:46:43;;;;;;;30.52;17.73;;;3.20;99.90;;;;;;5104715;28;20055;-78
2022/11/22 00:49:09;;;;;;;30.10;18.00;;;3.20;99.90;;;;;;5114869;28;20162;-79
2022/11/22 00:51:35;;;;;;;30.38;18.08;;;3.20;99.90;;;;;;5114654;28;20147;-78
2022/11/22 00:54:00;;;;;;;29.40;17.77;;;3.20;99.90;;;;;;5098837;28;20348;-79
2022/11/22 00:56:26;;;;;;;26.80;17.17;;;3.20;99.90;;;;;;5133628;28;20487;-79
2022/11/22 00:58:52;;;;;;;28.38;17.42;;;3.20;99.90;;;;;;5115593;28;20051;-79
2022/11/22 01:01:17;;;;;;;29.48;17.83;;;3.20;99.90;;;;;;5114894;28;20040;-79
2022/11/22 01:03:43;;;;;;;27.65;16.15;;;3.10;99.90;;;;;;5133488;27;20040;-78
2022/11/22 01:06:08;;;;;;;29.23;17.75;;;3.10;99.90;;;;;;5114965;28;20440;-78
2022/11/22 01:08:34;;;;;;;30.67;17.38;;;3.10;99.90;;;;;;5133394;27;20103;-78
2022/11/22 01:11:01;;;;;;;34.28;18.73;;;3.20;99.90;;;;;;5117376;27;20035;-78
2022/11/22 01:13:28;;;;;;;30.35;18.08;;;3.10;99.90;;;;;;5118675;27;20058;-78
2022/11/22 01:16:05;;;;;;;32.63;17.58;;;3.10;99.90;;;;;;5136746;27;20035;-78
2022/11/22 01:18:32;;;;;;;29.50;17.25;;;3.10;99.90;;;;;;5119688;27;20072;-78
2022/11/22 01:20:58;;;;;;;28.45;16.98;;;3.10;99.90;;;;;;5130110;27;20078;-78
2022/11/22 01:23:24;;;;;;;33.42;18.73;;;3.10;99.90;;;;;;5135765;27;20551;-78
2022/11/22 01:25:49;;;;;;;32.13;17.25;;;4.60;99.90;;;;;;5100492;27;20043;-79
2022/11/22 01:28:16;;;;;;;31.08;18.35;;;3.10;99.90;;;;;;5135902;27;20054;-79
2022/11/22 01:30:42;;;;;;;32.53;18.58;;;3.10;99.90;;;;;;5136153;27;20187;-79
2022/11/22 01:33:08;;;;;;;31.13;18.08;;;4.30;99.90;;;;;;5118199;27;20563;-79
2022/11/22 01:35:34;;;;;;;33.55;18.55;;;3.20;99.90;;;;;;5104524;28;20039;-78
2022/11/22 01:38:00;;;;;;;33.13;19.27;;;4.20;99.90;;;;;;5116780;28;20097;-78
2022/11/22 01:40:26;;;;;;;36.63;19.20;;;3.10;99.90;;;;;;5117819;27;20047;-78
2022/11/22 01:42:55;;;;;;;33.65;18.83;;;4.40;99.90;;;;;;5135575;27;20111;-78
2022/11/22 01:45:30;;;;;;;36.30;19.42;;;3.90;99.90;;;;;;5132577;27;20130;-78
2022/11/22 01:48:11;;;;;;;36.38;19.08;;;3.10;99.90;;;;;;5115584;28;20048;-78
2022/11/22 01:50:39;;;;;;;33.50;18.83;;;3.00;99.90;;;;;;5123997;27;20490;-78
2022/11/22 01:53:19;;;;;;;39.13;19.30;;;3.00;99.90;;;;;;5136049;27;20096;-78
2022/11/22 01:55:46;;;;;;;32.85;18.63;;;3.10;99.90;;;;;;5118720;27;20241;-78
2022/11/22 01:58:13;;;;;;;36.10;19.38;;;4.20;99.90;;;;;;5119119;27;20157;-79
2022/11/22 02:00:39;;;;;;;33.75;18.98;;;3.10;99.90;;;;;;5101116;27;20043;-78
2022/11/22 02:03:08;;;;;;;34.00;19.45;;;3.10;99.90;;;;;;5135482;27;20551;-79
2022/11/22 02:05:34;;;;;;;34.20;19.55;;;3.10;99.90;;;;;;5117445;27;20119;-79
2022/11/22 02:08:26;;;;;;;35.83;20.05;;;3.20;99.90;;;;;;5135888;27;20047;-78
2022/11/22 02:10:54;;;;;;;37.65;20.13;;;4.40;99.90;;;;;;5115024;28;20119;-79
2022/11/22 02:13:22;;;;;;;37.15;21.45;;;3.10;99.90;;;;;;5096384;28;20052;-78
2022/11/22 02:15:50;;;;;;;38.03;19.58;;;3.10;99.90;;;;;;5114888;28;20090;-79
2022/11/22 02:18:16;;;;;;;38.85;20.55;;;3.20;99.90;;;;;;5115677;28;20108;-78
2022/11/22 02:20:42;;;;;;;35.33;20.42;;;3.20;99.90;;;;;;5099092;27;20051;-79
2022/11/22 02:23:21;;;;;;;35.17;19.17;;;3.20;99.90;;;;;;5134926;27;20039;-78
2022/11/22 02:25:56;;;;;;;38.40;20.85;;;3.20;99.90;;;;;;5135703;27;20461;-79
2022/11/22 02:28:23;;;;;;;40.33;20.60;;;3.20;99.90;;;;;;5100361;27;20126;-78
2022/11/22 02:30:49;;;;;;;38.05;21.77;;;3.20;99.90;;;;;;5135171;27;20175;-78
2022/11/22 02:33:14;;;;;;;39.28;22.65;;;3.20;99.90;;;;;;5116420;27;20451;-78
2022/11/22 02:35:41;;;;;;;38.60;22.50;;;3.20;99.90;;;;;;5135010;27;20447;-78
2022/11/22 02:38:18;;;;;;;41.97;21.60;;;3.20;99.90;;;;;;5116549;27;20046;-78
2022/11/22 02:40:58;;;;;;;39.72;21.73;;;3.20;99.90;;;;;;5116153;27;20035;-78
2022/11/22 02:43:32;;;;;;;40.67;22.48;;;3.10;99.90;;;;;;5114986;27;20408;-78
2022/11/22 02:46:06;;;;;;;35.33;20.95;;;3.20;99.90;;;;;;5112012;28;20079;-78
2022/11/22 02:48:32;;;;;;;38.38;22.00;;;3.20;99.90;;;;;;5125874;27;20077;-79
2022/11/22 02:50:58;;;;;;;38.92;21.98;;;3.20;99.90;;;;;;5116983;27;20505;-78
2022/11/22 02:53:24;;;;;;;41.88;21.73;;;3.10;99.90;;;;;;5135077;27;20403;-78
2022/11/22 02:55:50;;;;;;;41.28;21.42;;;3.90;99.90;;;;;;5114380;27;20043;-78
2022/11/22 02:58:16;;;;;;;38.30;22.40;;;3.20;99.90;;;;;;5125833;27;20039;-79
2022/11/22 03:00:42;;;;;;;37.25;21.77;;;4.30;99.90;;;;;;5115277;27;20039;-79
2022/11/22 03:03:07;;;;;;;34.90;21.13;;;3.20;99.90;;;;;;5100058;27;20043;-79
2022/11/22 03:05:33;;;;;;;36.78;21.00;;;3.20;99.90;;;;;;5117041;27;20039;-78
2022/11/22 03:07:59;;;;;;;36.58;21.48;;;3.20;99.90;;;;;;5116572;27;20455;-78
2022/11/22 03:10:24;;;;;;;37.20;20.85;;;3.20;99.90;;;;;;5115489;27;20391;-78
2022/11/22 03:12:50;;;;;;;41.33;21.88;;;3.30;99.90;;;;;;5133917;27;20552;-78
2022/11/22 03:15:16;;;;;;;37.40;21.30;;;4.80;99.90;;;;;;5113934;28;20042;-78
2022/11/22 03:17:41;;;;;;;38.03;21.20;;;3.30;99.90;;;;;;5096185;27;20095;-78
2022/11/22 03:20:08;;;;;;;39.90;22.20;;;3.20;99.90;;;;;;5098580;27;20344;-78
2022/11/22 03:22:33;;;;;;;36.33;21.65;;;3.30;99.90;;;;;;5098706;27;20130;-78
2022/11/22 03:24:59;;;;;;;34.45;20.10;;;3.30;99.90;;;;;;5115561;27;20138;-79
2022/11/22 03:27:24;;;;;;;35.83;20.75;;;3.50;99.90;;;;;;5115388;27;20051;-78
2022/11/22 03:29:50;;;;;;;37.88;20.60;;;3.40;99.90;;;;;;5133527;27;20518;-78
2022/11/22 03:32:16;;;;;;;36.33;21.38;;;3.30;99.90;;;;;;5133967;27;20111;-79
2022/11/22 03:34:41;;;;;;;36.78;21.85;;;3.30;99.90;;;;;;5122627;27;20031;-79
2022/11/22 03:37:07;;;;;;;38.15;20.17;;;3.30;99.90;;;;;;5116895;27;20363;-79
2022/11/22 03:39:32;;;;;;;38.10;20.48;;;3.30;99.90;;;;;;5099899;27;20164;-79
2022/11/22 03:41:58;;;;;;;37.63;20.33;;;4.10;99.90;;;;;;5133781;27;20487;-79
2022/11/22 03:44:24;;;;;;;32.80;18.35;;;3.30;99.90;;;;;;5114712;27;20036;-79
2022/11/22 03:46:49;;;;;;;34.10;20.10;;;4.60;99.90;;;;;;5115173;27;20074;-79
2022/11/22 03:49:15;;;;;;;35.50;20.63;;;3.30;99.90;;;;;;5133794;27;20610;-78
2022/11/22 03:51:40;;;;;;;34.65;19.98;;;3.60;99.90;;;;;;5095088;28;20080;-78
2022/11/22 03:54:06;;;;;;;36.38;20.00;;;3.30;99.90;;;;;;5113224;28;20460;-79
2022/11/22 03:56:32;;;;;;;30.63;18.42;;;3.30;99.90;;;;;;5113143;28;20066;-79
2022/11/22 03:58:57;;;;;;;33.30;18.75;;;3.40;99.90;;;;;;5114438;28;20478;-79
2022/11/22 04:01:23;;;;;;;31.13;18.48;;;3.40;99.90;;;;;;5095800;28;20054;-78
2022/11/22 04:03:49;;;;;;;35.05;19.52;;;3.40;99.90;;;;;;5132749;28;20058;-79
2022/11/22 04:06:14;;;;;;;31.40;19.27;;;3.40;99.90;;;;;;5133914;27;20038;-79
2022/11/22 04:08:40;;;;;;;30.00;18.70;;;3.40;99.90;;;;;;5133799;28;20039;-78
2022/11/22 04:11:05;;;;;;;32.95;19.70;;;3.40;99.90;;;;;;5133967;27;20038;-78
2022/11/22 04:16:17;;;;;;;30.42;18.58;;;3.40;99.90;;;;;;5092093;27;20057;-79
2022/11/22 04:18:42;;;;;;;32.78;18.85;;;3.50;99.90;;;;;;5134029;28;20040;-79
2022/11/22 04:26:37;;;;;;;34.33;19.00;;;3.50;99.90;;;;;;5114103;28;20078;-79
2022/11/22 04:29:02;;;;;;;32.42;19.20;;;3.50;99.90;;;;;;5111920;28;20120;-79
2022/11/22 04:34:12;;;;;;;36.22;19.70;;;5.10;99.90;;;;;;5132870;28;20048;-79
2022/11/22 04:36:38;;;;;;;34.25;18.27;;;3.50;99.90;;;;;;5095670;28;20396;-78
2022/11/22 04:39:04;;;;;;;32.13;18.70;;;3.50;99.90;;;;;;5132905;28;20062;-79
2022/11/22 04:41:29;;;;;;;31.75;19.15;;;3.60;99.90;;;;;;5133904;28;20552;-79
2022/11/22 04:46:39;;;;;;;34.08;18.75;;;3.50;99.90;;;;;;5104425;27;20051;-79
2022/11/22 04:49:04;;;;;;;34.25;18.70;;;3.50;99.90;;;;;;5137199;27;20039;-79
2022/11/22 04:54:17;;;;;;;31.42;18.52;;;3.60;99.90;;;;;;5137819;27;20066;-79
2022/11/22 04:56:43;;;;;;;33.20;19.27;;;3.60;99.90;;;;;;5136587;27;20501;-79
2022/11/22 04:59:08;;;;;;;35.30;19.45;;;3.60;99.90;;;;;;5118263;27;20043;-79
2022/11/22 05:01:34;;;;;;;32.92;18.67;;;3.60;99.90;;;;;;5136287;27;20482;-79
2022/11/22 05:04:00;;;;;;;35.05;19.45;;;3.60;99.90;;;;;;5136862;27;20039;-79
2022/11/22 05:06:25;;;;;;;35.97;19.90;;;3.60;99.90;;;;;;5135820;27;20123;-79
2022/11/22 05:08:51;;;;;;;32.35;19.05;;;3.60;99.90;;;;;;5136609;27;20117;-78
2022/11/22 05:11:17;;;;;;;35.22;18.92;;;3.70;99.90;;;;;;5136273;27;20041;-79
2022/11/22 05:13:43;;;;;;;34.17;18.40;;;3.70;99.90;;;;;;5117533;27;20043;-79
2022/11/22 05:16:11;;;;;;;38.75;17.63;;;3.70;99.90;;;;;;5136268;27;20124;-79
2022/11/22 05:18:37;;;;;;;32.10;17.75;;;3.70;99.90;;;;;;5125380;27;20069;-79
2022/11/22 05:21:05;;;;;;;31.08;17.70;;;4.60;99.90;;;;;;5136337;27;20463;-78
2022/11/22 05:26:15;;;;;;;29.77;18.05;;;3.80;99.90;;;;;;5133809;27;20043;-79
2022/11/22 05:28:41;;;;;;;29.05;17.27;;;3.80;99.90;;;;;;5136010;27;20046;-79
2022/11/22 05:31:21;;;;;;;31.25;18.10;;;3.90;99.90;;;;;;5135774;27;20047;-80
2022/11/22 05:33:48;;;;;;;33.45;19.40;;;3.80;99.90;;;;;;5115697;27;20057;-79
2022/11/22 05:36:13;;;;;;;31.38;17.95;;;3.90;99.90;;;;;;5109768;28;20071;-79
2022/11/22 05:38:40;;;;;;;33.92;17.63;;;4.10;99.90;;;;;;5117613;27;20476;-79
2022/11/22 05:41:08;;;;;;;32.38;17.15;;;4.80;99.90;;;;;;5135614;27;20525;-79
2022/11/22 05:43:34;;;;;;;30.00;17.52;;;4.00;99.90;;;;;;5134802;27;20062;-79
2022/11/22 05:46:06;;;;;;;31.15;18.73;;;4.00;99.90;;;;;;5124420;27;20122;-79
2022/11/22 05:48:32;;;;;;;30.67;19.02;;;4.30;99.90;;;;;;5098169;28;20055;-79
2022/11/22 05:50:58;;;;;;;31.02;18.23;;;4.00;99.90;;;;;;5133884;27;20046;-79
2022/11/22 05:53:23;;;;;;;30.33;17.92;;;5.40;99.90;;;;;;5117415;27;20042;-79
2022/11/22 05:55:49;;;;;;;33.97;18.27;;;4.00;99.90;;;;;;5135209;27;20050;-79
2022/11/22 05:58:14;;;;;;;35.17;19.10;;;4.00;99.90;;;;;;5128225;27;20115;-78
2022/11/22 06:00:40;;;;;;;31.65;18.15;;;4.00;99.90;;;;;;5096214;28;20040;-79
2022/11/22 06:03:05;;;;;;;28.58;17.90;;;4.00;99.90;;;;;;5115002;28;20520;-79
2022/11/22 06:05:31;;;;;;;32.05;19.40;;;4.20;99.90;;;;;;5096321;28;20430;-79
2022/11/22 06:07:58;;;;;;;31.88;18.52;;;4.10;99.90;;;;;;5115227;28;20086;-78
2022/11/22 06:10:25;;;;;;;30.55;18.52;;;4.10;99.90;;;;;;5124552;27;20456;-78
2022/11/22 06:12:51;;;;;;;32.80;19.55;;;4.10;99.90;;;;;;5135427;27;20043;-79
2022/11/22 06:15:16;;;;;;;33.70;18.30;;;4.10;99.90;;;;;;5116434;27;20562;-79
2022/11/22 06:17:42;;;;;;;33.92;20.15;;;4.80;99.90;;;;;;5117248;27;20432;-79
2022/11/22 06:20:08;;;;;;;34.30;19.05;;;4.20;99.90;;;;;;5116334;27;20035;-78
2022/11/22 06:22:34;;;;;;;35.85;19.83;;;4.10;99.90;;;;;;5134349;27;20051;-79
2022/11/22 06:24:59;;;;;;;32.10;19.00;;;4.20;99.90;;;;;;5134071;27;20047;-78
2022/11/22 06:27:25;;;;;;;33.30;19.27;;;5.20;99.90;;;;;;5134511;27;20395;-79
2022/11/22 06:29:51;;;;;;;30.52;18.75;;;4.20;99.90;;;;;;5115109;27;20047;-79
2022/11/22 06:32:16;;;;;;;31.77;18.23;;;4.20;99.90;;;;;;5114617;28;20040;-78
2022/11/22 06:34:42;;;;;;;33.08;19.20;;;4.20;99.90;;;;;;5125010;27;20106;-79
2022/11/22 06:37:07;;;;;;;32.35;18.42;;;5.40;99.90;;;;;;5116992;27;20168;-78
2022/11/22 06:39:33;;;;;;;33.45;19.15;;;4.30;99.90;;;;;;5117238;27;20122;-78
2022/11/22 06:41:59;;;;;;;32.00;18.13;;;4.30;99.90;;;;;;5134890;27;20050;-78
2022/11/22 06:44:24;;;;;;;33.40;19.13;;;4.40;99.90;;;;;;5115906;27;20047;-78
2022/11/22 06:46:50;;;;;;;33.60;19.33;;;4.30;99.90;;;;;;5132764;27;20051;-78
2022/11/22 06:49:16;;;;;;;30.52;18.73;;;4.40;99.90;;;;;;5123133;27;20035;-78
2022/11/22 06:51:41;;;;;;;32.75;18.02;;;4.30;99.90;;;;;;5116125;27;20039;-78
2022/11/22 06:54:10;;;;;;;30.83;19.13;;;4.40;99.90;;;;;;5135364;27;20065;-78
2022/11/22 06:56:37;;;;;;;31.65;19.30;;;4.40;99.90;;;;;;5116424;27;20043;-78
2022/11/22 06:59:05;;;;;;;32.72;19.27;;;4.70;99.90;;;;;;5116065;27;20039;-78
2022/11/22 07:01:32;;;;;;;33.58;19.20;;;4.40;99.90;;;;;;5116029;27;20039;-78
2022/11/22 07:03:58;;;;;;;34.13;18.92;;;4.40;99.90;;;;;;5114242;27;20118;-78
2022/11/22 07:06:27;;;;;;;38.70;19.52;;;4.50;99.90;;;;;;5094784;28;20039;-78
2022/11/22 07:08:53;;;;;;;32.25;19.65;;;4.50;99.90;;;;;;5113300;28;20047;-78
2022/11/22 07:11:24;;;;;;;29.73;17.95;;;4.50;99.90;;;;;;5113430;28;20042;-78
2022/11/22 07:13:51;;;;;;;32.90;19.45;;;4.50;99.90;;;;;;5095100;28;20047;-78
2022/11/22 07:16:19;;;;;;;29.92;18.70;;;4.60;99.90;;;;;;5094775;28;20046;-77
2022/11/22 07:18:45;;;;;;;34.55;17.80;;;4.60;99.90;;;;;;5113110;28;20050;-78
2022/11/22 07:21:14;;;;;;;28.00;17.95;;;4.60;99.90;;;;;;5111555;28;20035;-78
2022/11/22 07:23:42;;;;;;;31.55;17.85;;;4.60;99.90;;;;;;5107080;27;20050;-78
2022/11/22 07:26:08;;;;;;;30.05;18.80;;;4.70;99.90;;;;;;5114289;27;20043;-80
2022/11/22 07:28:34;;;;;;;29.75;17.10;;;4.70;99.90;;;;;;5096112;28;20043;-78
2022/11/22 07:31:01;;;;;;;30.67;18.17;;;4.70;99.90;;;;;;5111301;27;20491;-78
2022/11/22 07:33:27;;;;;;;30.45;18.42;;;4.70;99.90;;;;;;5114681;27;20488;-78
2022/11/22 07:35:53;;;;;;;30.15;18.08;;;4.70;99.90;;;;;;5133340;27;20039;-78
2022/11/22 07:38:18;;;;;;;29.00;17.60;;;4.80;99.90;;;;;;5133291;27;20127;-77
2022/11/22 07:40:44;;;;;;;33.15;17.55;;;4.80;99.90;;;;;;5133439;27;20046;-80
2022/11/22 07:43:10;;;;;;;33.50;17.92;;;4.90;99.90;;;;;;5114649;27;20068;-78
2022/11/22 07:45:35;;;;;;;31.65;17.67;;;4.90;99.90;;;;;;5132884;27;20059;-78
2022/11/22 07:48:01;;;;;;;27.73;16.55;;;4.90;99.90;;;;;;5132564;27;20074;-78
2022/11/22 07:50:27;;;;;;;31.20;16.70;;;5.00;99.90;;;;;;5097154;27;20122;-78
2022/11/22 07:52:59;;;;;;;29.95;16.45;;;5.00;99.90;;;;;;5097525;27;20190;-79
2022/11/22 07:55:26;;;;;;;31.90;16.25;;;5.10;99.90;;;;;;5114864;27;20138;-78
2022/11/22 07:57:58;;;;;;;27.15;16.20;;;5.10;99.90;;;;;;5115067;28;20042;-78
2022/11/22 08:00:25;;;;;;;26.50;14.90;;;5.10;99.90;;;;;;5114584;28;20043;-78
2022/11/22 08:02:50;;;;;;;25.15;13.50;;;5.20;99.90;;;;;;5132549;28;20091;-80
2022/11/22 08:05:16;;;;;;;24.83;14.32;;;5.30;99.90;;;;;;5132662;28;20043;-79
2022/11/22 08:07:46;;;;;;;23.73;13.98;;;5.30;99.90;;;;;;5131525;28;20051;-79
2022/11/22 08:10:12;;;;;;;28.00;14.73;;;5.40;99.90;;;;;;5122369;28;20141;-79
2022/11/22 08:12:38;;;;;;;25.88;13.88;;;6.80;99.90;;;;;;5105066;28;20044;-79
2022/11/22 08:15:04;;;;;;;24.08;12.40;;;5.50;99.90;;;;;;5128854;28;20487;-79
2022/11/22 08:17:33;;;;;;;25.20;12.27;;;5.60;99.90;;;;;;5094180;28;20123;-79
2022/11/22 08:19:58;;;;;;;20.75;10.50;;;5.60;99.90;;;;;;5116059;27;20621;-79
2022/11/22 08:22:24;;;;;;;24.73;10.30;;;5.80;99.90;;;;;;5127943;27;20452;-80
2022/11/22 08:24:49;;;;;;;23.88;10.23;;;6.40;99.90;;;;;;5097620;27;20047;-80
2022/11/22 08:27:15;;;;;;;18.10;9.25;;;7.20;99.90;;;;;;5110805;27;20045;-79
2022/11/22 08:29:41;;;;;;;19.42;8.90;;;5.90;99.90;;;;;;5137049;27;20077;-80
2022/11/22 08:32:07;;;;;;;19.08;9.00;;;6.00;99.90;;;;;;5136901;27;20039;-79
2022/11/22 08:34:32;;;;;;;18.55;8.55;;;7.10;99.90;;;;;;5118413;27;20039;-80
2022/11/22 08:36:58;;;;;;;19.15;7.85;;;7.30;99.90;;;;;;5118534;27;20049;-80
2022/11/22 08:39:23;;;;;;;18.02;8.10;;;6.10;99.90;;;;;;5118912;27;20418;-82
2022/11/22 08:41:49;;;;;;;14.82;7.13;;;6.70;99.90;;;;;;5101577;27;20448;-79
2022/11/22 08:44:15;;;;;;;17.88;7.80;;;6.20;99.90;;;;;;5137177;27;20054;-79
2022/11/22 08:46:40;;;;;;;16.58;6.32;;;7.30;99.90;;;;;;5101295;27;20051;-79
2022/11/22 08:49:06;;;;;;;20.65;7.45;;;6.30;99.90;;;;;;5118832;27;20066;-79
2022/11/22 08:51:33;;;;;;;17.45;6.45;;;6.80;99.90;;;;;;5136112;27;20179;-79
2022/11/22 08:53:59;;;;;;;17.20;6.70;;;6.40;99.90;;;;;;5136323;27;20039;-79
2022/11/22 08:56:24;;;;;;;16.52;6.60;;;6.50;99.90;;;;;;5117667;27;20039;-79
2022/11/22 08:58:50;;;;;;;19.63;7.95;;;6.50;99.90;;;;;;5124524;27;20054;-79
2022/11/22 09:01:17;;;;;;;19.60;6.45;;;6.50;99.90;;;;;;5097388;28;20510;-79
2022/11/22 09:03:44;;;;;;;15.55;5.80;;;6.40;99.90;;;;;;5115710;28;20043;-79
2022/11/22 09:06:13;;;;;;;16.55;6.00;;;6.50;99.90;;;;;;5115792;28;20472;-79
2022/11/22 09:08:39;;;;;;;16.27;5.95;;;6.50;99.90;;;;;;5116348;28;20372;-79
2022/11/22 09:11:07;;;;;;;15.13;5.00;;;6.50;99.90;;;;;;5097606;28;20044;-79
2022/11/22 09:13:34;;;;;;;14.82;5.38;;;6.50;99.90;;;;;;5096463;28;20043;-78
2022/11/22 09:16:04;;;;;;;17.45;5.63;;;6.60;99.90;;;;;;5097600;28;20411;-80
2022/11/22 09:18:30;;;;;;;16.52;5.07;;;6.50;99.90;;;;;;5100464;27;20043;-79
2022/11/22 09:21:07;;;;;;;14.27;4.65;;;7.70;99.90;;;;;;5135555;27;20046;-79
2022/11/22 09:23:34;;;;;;;14.80;5.05;;;6.50;99.90;;;;;;5136057;27;20043;-79
2022/11/22 09:26:21;;;;;;;17.50;5.63;;;6.60;99.90;;;;;;5137320;27;20118;-79
2022/11/22 09:28:46;;;;;;;15.77;5.00;;;6.60;99.90;;;;;;5137537;27;20058;-80
2022/11/22 09:31:17;;;;;;;16.40;4.80;;;6.60;99.90;;;;;;5135579;27;20038;-79
2022/11/22 09:33:44;;;;;;;15.55;5.15;;;6.60;99.90;;;;;;5137532;27;20096;-79
2022/11/22 09:36:15;;;;;;;18.25;5.55;;;7.80;99.90;;;;;;5118370;27;20396;-79
2022/11/22 09:38:41;;;;;;;13.18;5.30;;;6.40;99.90;;;;;;5136139;27;20381;-79
2022/11/22 09:41:22;;;;;;;11.95;5.05;;;6.40;99.90;;;;;;5116965;27;20043;-79
2022/11/22 09:44:06;;;;;;;13.32;5.30;;;6.40;99.90;;;;;;5117403;27;20403;-79
2022/11/22 09:46:59;;;;;;;14.35;5.07;;;6.40;99.90;;;;;;5135227;27;20464;-79
2022/11/22 09:49:46;;;;;;;14.85;4.70;;;7.00;99.90;;;;;;5114353;28;20055;-78
2022/11/22 09:52:24;;;;;;;16.42;5.03;;;6.40;99.90;;;;;;5096819;28;20410;-78
2022/11/22 09:55:03;;;;;;;14.88;5.03;;;6.30;99.90;;;;;;5096251;28;20085;-78
2022/11/22 09:57:36;;;;;;;11.15;4.25;;;6.30;99.90;;;;;;5115363;28;20123;-79
2022/11/22 10:00:18;;;;;;;12.43;4.72;;;6.40;99.90;;;;;;5115083;28;20039;-79
2022/11/22 10:02:55;;;;;;;14.50;4.43;;;6.40;99.90;;;;;;5115999;28;20071;-79
2022/11/22 10:05:26;;;;;;;11.98;4.65;;;6.40;99.90;;;;;;5115765;28;20031;-79
2022/11/22 10:08:06;;;;;;;15.68;4.22;;;7.70;99.90;;;;;;5113481;27;20062;-79
2022/11/22 10:10:39;;;;;;;10.95;3.80;;;6.40;99.90;;;;;;5118509;27;20047;-79
2022/11/22 10:13:22;;;;;;;10.57;3.70;;;6.50;99.90;;;;;;5135540;27;20043;-79
2022/11/22 10:15:56;;;;;;;14.70;4.18;;;6.40;99.90;;;;;;5116308;27;20112;-79
2022/11/22 10:18:43;;;;;;;9.73;3.38;;;6.50;99.90;;;;;;5121616;27;20123;-79
2022/11/22 10:21:12;;;;;;;8.63;3.28;;;6.50;99.90;;;;;;5115390;27;20130;-79
2022/11/22 10:23:40;;;;;;;14.18;3.38;;;6.50;99.90;;;;;;5114509;27;20413;-79
2022/11/22 10:26:25;;;;;;;10.57;3.20;;;6.60;99.90;;;;;;5133502;27;20061;-79
2022/11/22 10:29:09;;;;;;;7.88;2.72;;;6.60;99.90;;;;;;5134226;27;20078;-78
2022/11/22 10:31:39;;;;;;;10.35;3.03;;;6.70;99.90;;;;;;5133857;27;20035;-79
2022/11/22 10:34:15;;;;;;;11.02;3.22;;;6.70;99.90;;;;;;5132110;27;20129;-79
2022/11/22 10:36:53;;;;;;;9.52;3.03;;;6.70;99.90;;;;;;5112943;27;20340;-79
2022/11/22 10:39:42;;;;;;;10.60;3.30;;;6.70;99.90;;;;;;5131315;27;20538;-79
2022/11/22 10:42:24;;;;;;;9.98;2.92;;;6.80;99.90;;;;;;5095102;27;20418;-78
2022/11/22 10:45:03;;;;;;;9.93;3.40;;;6.80;99.90;;;;;;5131219;27;20051;-79
2022/11/22 10:48:04;;;;;;;8.60;3.17;;;6.80;99.90;;;;;;5111208;27;20057;-77
2022/11/22 10:50:42;;;;;;;9.10;3.08;;;7.00;99.90;;;;;;5112648;27;20054;-79
2022/11/22 10:53:33;;;;;;;7.40;2.70;;;7.40;99.90;;;;;;5113251;27;20053;-77
2022/11/22 10:56:02;;;;;;;11.75;3.20;;;;;;;;;;5105850;27;20047;-78
2022/11/22 10:58:40;;;;;;;8.35;3.03;;;;;;;;;;5096319;28;20047;-79
2022/11/22 11:01:25;;;;;;;7.85;2.70;;;;;;;;;;5129210;27;20126;-79
2022/11/22 11:03:56;;;;;;;8.43;2.78;;;8.10;99.90;;;;;;5111374;27;20047;-79
2022/11/22 11:06:25;;;;;;;9.25;2.50;;;10.60;99.90;;;;;;5135009;27;20039;-78
2022/11/22 11:09:22;;;;;;;8.50;2.72;;;9.50;99.90;;;;;;5098944;27;20115;-78
2022/11/22 11:11:51;;;;;;;9.32;2.75;;;9.10;99.90;;;;;;5093867;27;20062;-78
2022/11/22 11:14:30;;;;;;;15.18;3.08;;;8.70;99.90;;;;;;5133152;27;20352;-79
2022/11/22 11:16:56;;;;;;;7.72;2.92;;;8.50;99.90;;;;;;5131979;27;20058;-78
2022/11/22 11:19:29;;;;;;;6.50;2.63;;;8.90;99.90;;;;;;5104384;27;20039;-78
2022/11/22 11:22:01;;;;;;;5.75;2.20;;;8.20;99.90;;;;;;5132084;27;20047;-80
2022/11/22 11:24:28;;;;;;;6.68;2.55;;;8.00;99.90;;;;;;5115177;27;20143;-78
2022/11/22 11:26:57;;;;;;;9.40;2.88;;;8.00;99.90;;;;;;5119243;27;20058;-79
2022/11/22 11:29:22;;;;;;;8.88;3.10;;;7.90;99.90;;;;;;5115868;27;20039;-91
2022/11/22 11:32:02;;;;;;;7.05;2.70;;;7.80;99.90;;;;;;5099159;27;20051;-92
2022/11/22 11:34:29;;;;;;;8.32;2.75;;;7.90;99.90;;;;;;5099411;27;20495;-92
2022/11/22 11:36:56;;;;;;;7.15;2.60;;;9.40;99.90;;;;;;5135182;27;20039;-91
2022/11/22 11:39:27;;;;;;;7.88;2.30;;;9.30;99.90;;;;;;5098820;27;20078;-91
2022/11/22 11:41:56;;;;;;;6.45;2.45;;;7.90;99.90;;;;;;5099906;27;20089;-92
2022/11/22 11:44:35;;;;;;;7.70;2.50;;;8.50;99.90;;;;;;5100121;27;20134;-91
2022/11/22 11:47:02;;;;;;;9.90;2.80;;;8.80;99.90;;;;;;5098165;28;20415;-91
2022/11/22 11:49:30;;;;;;;9.95;2.85;;;7.70;99.90;;;;;;5089965;28;20246;-83
2022/11/22 11:52:16;;;;;;;10.27;2.83;;;7.70;99.90;;;;;;5113504;28;20522;-84
2022/11/22 11:54:48;;;;;;;6.25;2.42;;;8.20;99.90;;;;;;5132813;27;20047;-84
2022/11/22 11:57:33;;;;;;;9.30;3.10;;;7.60;99.90;;;;;;5113972;27;20035;-83
2022/11/22 12:00:01;;;;;;;8.88;2.78;;;7.70;99.90;;;;;;5094380;28;20150;-83
2022/11/22 12:02:32;;;;;;;12.63;2.78;;;7.90;99.90;;;;;;5122363;28;20474;-84
2022/11/22 12:05:13;;;;;;;7.75;2.53;;;8.00;99.90;;;;;;5097765;28;20051;-85
2022/11/22 12:07:44;;;;;;;6.45;2.50;;;8.10;99.90;;;;;;5115640;28;20099;-82
2022/11/22 12:10:54;;;;;;;8.85;2.30;;;8.10;99.90;;;;;;5098189;28;20127;-83
2022/11/22 12:13:28;;;;;;;9.07;2.67;;;8.30;99.90;;;;;;5046774;28;20055;-88
2022/11/22 12:16:19;;;;;;;9.55;2.63;;;9.40;99.90;;;;;;5116168;28;20157;-82
2022/11/22 12:18:48;;;;;;;8.13;2.50;;;;;;;;;;5112932;28;20185;-84
2022/11/22 12:21:24;;;;;;;9.02;2.55;;;;;;;;;;5094319;28;20188;-84
2022/11/22 12:24:00;;;;;;;7.38;2.25;;;9.10;99.90;;;;;;5099676;28;20054;-83
2022/11/22 12:26:26;;;;;;;11.18;2.58;;;10.00;99.90;;;;;;5099864;28;20449;-80
2022/11/22 12:28:53;;;;;;;8.35;2.45;;;9.70;99.90;;;;;;5112032;28;20051;-81
2022/11/22 12:31:35;;;;;;;9.65;2.67;;;9.40;99.90;;;;;;5094252;28;20054;-78
2022/11/22 12:34:22;;;;;;;10.20;2.33;;;9.20;99.90;;;;;;5112612;28;20043;-78
2022/11/22 12:37:09;;;;;;;7.72;2.28;;;8.90;99.90;;;;;;5094110;28;20417;-80
2022/11/22 12:39:35;;;;;;;;;;;8.70;99.90;;;;;;5113036;28;20047;-78
2022/11/22 12:42:09;;;;;;;;;;;8.60;99.90;;;;;;5094331;28;20077;-78
2022/11/22 12:44:43;;;;;;;5.38;2.10;;;8.50;99.90;;;;;;5093847;28;19915;-78
2022/11/22 12:47:15;;;;;;;7.25;2.72;;;8.40;99.90;;;;;;5112497;28;20505;-77
2022/11/22 12:49:59;;;;;;;6.75;2.40;;;8.40;99.90;;;;;;5112174;28;20040;-77
2022/11/22 12:52:33;;;;;;;7.97;2.50;;;8.30;99.90;;;;;;5103471;28;20053;-80
2022/11/22 12:55:25;;;;;;;9.65;3.13;;;8.30;99.90;;;;;;5096781;28;20504;-78
2022/11/22 12:57:58;;;;;;;8.25;2.78;;;8.20;99.90;;;;;;5133120;28;20054;-78
2022/11/22 13:00:28;;;;;;;9.00;2.70;;;8.40;99.90;;;;;;5132922;28;20111;-78
2022/11/22 13:03:18;;;;;;;6.93;2.50;;;8.20;99.90;;;;;;5132777;28;20343;-78
2022/11/22 13:05:57;;;;;;;9.35;2.45;;;8.20;99.90;;;;;;5133510;27;20042;-78
2022/11/22 13:08:45;;;;;;;6.57;2.50;;;8.10;99.90;;;;;;5121182;27;20035;-78
2022/11/22 13:11:20;;;;;;;9.57;2.55;;;8.40;99.90;;;;;;5080207;28;20377;-78
2022/11/22 13:13:49;;;;;;;7.80;2.92;;;9.40;99.90;;;;;;5115182;28;20059;-78